Time;durP1;ratioP1;P1;durP2;ratioP2;P2;SDS_P1;SDS_P2;PMS_P1;PMS_P2;Temp;Humidity;BMP_temperature;BMP_pressure;BME280_temperature;BME280_humidity;BME280_pressure;Samples;Min_cycle;Max_cycle;Signal;HPM_P1;HPM_P2
2021/09/21 00:02:25;;;;;;;6.55;0.70;;;;;;;;;;5110917;28;20038;-71
2021/09/21 00:04:51;;;;;;;2.42;0.55;;;;;;;;;;5109324;28;20069;-71
2021/09/21 00:07:17;;;;;;;2.00;0.50;;;;;;;;;;5113160;28;20424;-71
2021/09/21 00:09:45;;;;;;;1.23;0.57;;;;;;;;;;5112599;28;20066;-72
2021/09/21 00:12:11;;;;;;;;;;;;;;;;;;5111620;28;20119;-71
2021/09/21 00:14:38;;;;;;;1.90;0.50;;;;;;;;;;5110572;28;19951;-71
2021/09/21 00:17:04;;;;;;;5.97;0.65;;;;;;;;;;5111018;28;20016;-71
2021/09/21 00:19:33;;;;;;;2.60;0.73;;;;;;;;;;5094669;28;20016;-71
2021/09/21 00:22:00;;;;;;;2.17;0.80;;;;;;;;;;5110316;28;20023;-71
2021/09/21 00:24:26;;;;;;;1.60;0.75;;;;;;;;;;5110917;28;20026;-71
2021/09/21 00:26:52;;;;;;;8.05;1.10;;;;;;;;;;5109897;28;20395;-71
2021/09/21 00:29:18;;;;;;;2.10;0.90;;;;;;;;;;5110548;28;20026;-71
2021/09/21 00:31:49;;;;;;;2.83;0.90;;;;;;;;;;5110509;28;20032;-71
2021/09/21 00:34:15;;;;;;;2.08;0.70;;;;;;;;;;5112630;28;20028;-71
2021/09/21 00:36:42;;;;;;;5.28;0.90;;;;;;;;;;5111503;28;20028;-71
2021/09/21 00:39:09;;;;;;;2.40;0.85;;;;;;;;;;5110439;28;20027;-71
2021/09/21 00:41:41;;;;;;;0.73;0.57;;;;;;;;;;5110251;28;20015;-71
2021/09/21 00:44:08;;;;;;;3.83;0.70;;;;;;;;;;5104514;28;20042;-71
2021/09/21 00:46:34;;;;;;;1.50;0.80;;;;;;;;;;5109396;28;20308;-71
2021/09/21 00:49:00;;;;;;;2.63;0.80;;;;;;;;;;5113959;28;20036;-71
2021/09/21 00:51:26;;;;;;;3.15;0.80;;;;;;;;;;5110376;28;20102;-71
2021/09/21 00:53:53;;;;;;;0.55;0.50;;;;;;;;;;5110259;28;20146;-71
2021/09/21 00:56:19;;;;;;;7.68;0.68;;;;;;;;;;5110536;28;20012;-71
2021/09/21 00:58:45;;;;;;;2.92;0.55;;;;;;;;;;5108157;28;20484;-71
2021/09/21 01:01:11;;;;;;;2.22;0.60;;;;;;;;;;5112614;28;20016;-71
2021/09/21 01:03:37;;;;;;;4.32;0.63;;;;;;;;;;5111305;28;20436;-71
2021/09/21 01:06:03;;;;;;;3.65;0.80;;;;;;;;;;5109580;28;20173;-71
2021/09/21 01:08:30;;;;;;;3.25;0.60;;;;;;;;;;5109790;28;20027;-71
2021/09/21 01:10:56;;;;;;;4.63;0.70;;;;;;;;;;5109183;28;20023;-71
2021/09/21 01:13:22;;;;;;;6.38;0.80;;;;;;;;;;5111201;28;20526;-71
2021/09/21 01:15:49;;;;;;;5.13;0.90;;;;;;;;;;5113445;28;20015;-71
2021/09/21 01:18:16;;;;;;;1.48;0.50;;;;;;;;;;5109580;28;20031;-72
2021/09/21 01:20:42;;;;;;;2.45;0.80;;;;;;;;;;5109547;28;20080;-71
2021/09/21 01:23:08;;;;;;;2.20;0.50;;;;;;;;;;5108968;28;20028;-71
2021/09/21 01:25:34;;;;;;;3.42;0.73;;;;;;;;;;5109577;28;20028;-71
2021/09/21 01:28:00;;;;;;;4.78;0.70;;;;;;;;;;5112782;28;20043;-72
2021/09/21 01:30:26;;;;;;;2.22;0.60;;;;;;;;;;5109260;28;20462;-72
2021/09/21 01:32:52;;;;;;;5.65;0.70;;;;;;;;;;5109285;28;20123;-72
2021/09/21 01:35:18;;;;;;;3.08;0.63;;;;;;;;;;5109553;28;20020;-71
2021/09/21 01:37:47;;;;;;;3.08;0.70;;;;;;;;;;5109226;28;20058;-71
2021/09/21 01:40:13;;;;;;;3.83;0.70;;;;;;;;;;5111891;28;20024;-71
2021/09/21 01:42:46;;;;;;;3.50;0.60;;;;;;;;;;5110358;28;20394;-71
2021/09/21 01:45:13;;;;;;;2.97;0.90;;;;;;;;;;5109044;28;20041;-71
2021/09/21 01:47:39;;;;;;;6.28;0.88;;;;;;;;;;5108804;28;20039;-71
2021/09/21 01:58:16;;;;;;;4.35;0.60;;;;;;;;;;5111191;28;20042;-71
2021/09/21 02:00:40;;;;;;;3.97;0.75;;;;;;;;;;5112317;28;20046;-71
2021/09/21 02:03:06;;;;;;;3.45;0.93;;;;;;;;;;5108575;28;20395;-71
2021/09/21 02:05:32;;;;;;;2.00;0.55;;;;;;;;;;5108444;28;20107;-71
2021/09/21 02:07:58;;;;;;;4.82;0.75;;;;;;;;;;5109133;28;20073;-71
2021/09/21 02:10:24;;;;;;;6.25;0.80;;;;;;;;;;5108877;28;20047;-71
2021/09/21 02:12:50;;;;;;;1.13;0.50;;;;;;;;;;5110832;28;20028;-71
2021/09/21 02:15:16;;;;;;;2.03;0.80;;;;;;;;;;5108724;28;20482;-71
2021/09/21 02:17:41;;;;;;;3.40;0.63;;;;;;;;;;5102961;28;20019;-73
2021/09/21 02:20:08;;;;;;;4.50;0.63;;;;;;;;;;5108876;28;20039;-73
2021/09/21 02:22:34;;;;;;;7.75;0.60;;;;;;;;;;5109024;28;20055;-73
2021/09/21 02:25:00;;;;;;;2.95;1.00;;;;;;;;;;5111758;28;20467;-73
2021/09/21 02:27:26;;;;;;;0.40;0.40;;;;;;;;;;5108625;28;20078;-73
2021/09/21 02:29:52;;;;;;;7.38;0.90;;;;;;;;;;5108383;28;20501;-73
2021/09/21 02:32:18;;;;;;;2.63;0.70;;;;;;;;;;5108677;28;20084;-73
2021/09/21 02:34:47;;;;;;;6.50;0.70;;;;;;;;;;5107108;28;20111;-73
2021/09/21 02:37:14;;;;;;;2.58;0.73;;;;;;;;;;5110835;28;20024;-73
2021/09/21 02:39:40;;;;;;;1.63;0.60;;;;;;;;;;5109224;28;20020;-73
2021/09/21 02:42:06;;;;;;;1.45;0.52;;;;;;;;;;5108672;28;20039;-73
2021/09/21 02:44:33;;;;;;;1.38;0.50;;;;;;;;;;5107767;28;20028;-72
2021/09/21 02:47:00;;;;;;;2.42;0.60;;;;;;;;;;5103695;28;20438;-72
2021/09/21 02:49:26;;;;;;;2.38;0.52;;;;;;;;;;5108997;28;20032;-72
2021/09/21 02:51:52;;;;;;;1.65;0.40;;;;;;;;;;5110778;28;20027;-72
2021/09/21 02:54:17;;;;;;;4.07;0.70;;;;;;;;;;5107972;28;20028;-73
2021/09/21 02:56:43;;;;;;;2.45;0.52;;;;;;;;;;5108618;28;20023;-72
2021/09/21 02:59:09;;;;;;;1.80;0.70;;;;;;;;;;5108205;28;20119;-72
2021/09/21 03:01:35;;;;;;;0.60;0.40;;;;;;;;;;5107044;28;20032;-73
2021/09/21 03:04:06;;;;;;;2.55;0.60;;;;;;;;;;5111744;28;20403;-72
2021/09/21 03:06:35;;;;;;;3.50;0.60;;;;;;;;;;5109197;28;20092;-72
2021/09/21 03:11:41;;;;;;;1.20;0.70;;;;;;;;;;5108318;28;20093;-72
2021/09/21 03:19:24;;;;;;;5.38;0.63;;;;;;;;;;5109811;28;20030;-73
2021/09/21 03:21:51;;;;;;;1.73;0.68;;;;;;;;;;5110880;28;20020;-73
2021/09/21 03:24:17;;;;;;;3.28;0.80;;;;;;;;;;5107802;28;20035;-72
2021/09/21 03:26:43;;;;;;;1.88;0.63;;;;;;;;;;5107647;28;20562;-69
2021/09/21 03:29:09;;;;;;;4.07;1.10;;;;;;;;;;5107857;28;20039;-73
2021/09/21 03:31:35;;;;;;;6.95;0.80;;;;;;;;;;5111687;28;20027;-72
2021/09/21 03:34:01;;;;;;;1.13;0.60;;;;;;;;;;5106780;28;20035;-72
2021/09/21 03:36:27;;;;;;;1.45;0.65;;;;;;;;;;5108048;28;20102;-73
2021/09/21 03:38:53;;;;;;;3.03;0.68;;;;;;;;;;5107340;28;20024;-73
2021/09/21 03:41:19;;;;;;;1.52;0.50;;;;;;;;;;5106857;28;20028;-73
2021/09/21 03:43:45;;;;;;;2.03;0.65;;;;;;;;;;5105677;28;20031;-72
2021/09/21 03:46:11;;;;;;;1.08;0.50;;;;;;;;;;5108417;28;20068;-72
2021/09/21 03:48:37;;;;;;;2.17;0.60;;;;;;;;;;5107755;28;20028;-73
2021/09/21 03:51:04;;;;;;;5.22;0.63;;;;;;;;;;5111912;28;20040;-73
2021/09/21 03:53:30;;;;;;;6.13;1.52;;;;;;;;;;5111285;28;20031;-72
2021/09/21 03:55:56;;;;;;;3.05;0.63;;;;;;;;;;5111099;28;20068;-73
2021/09/21 03:58:22;;;;;;;6.88;0.90;;;;;;;;;;5112972;28;20027;-72
2021/09/21 04:00:47;;;;;;;3.92;0.75;;;;;;;;;;5112813;28;20020;-72
2021/09/21 04:03:14;;;;;;;5.15;0.90;;;;;;;;;;5110275;28;20586;-72
2021/09/21 04:05:41;;;;;;;1.02;0.63;;;;;;;;;;5111297;28;20135;-72
2021/09/21 04:08:07;;;;;;;0.52;0.52;;;;;;;;;;5111000;28;20023;-72
2021/09/21 04:10:33;;;;;;;0.85;0.55;;;;;;;;;;5109920;28;20016;-72
2021/09/21 04:12:59;;;;;;;47.35;1.75;;;;;;;;;;5113884;28;20085;-72
2021/09/21 04:15:25;;;;;;;1.40;0.60;;;;;;;;;;5110739;28;20028;-72
2021/09/21 04:17:51;;;;;;;2.42;0.50;;;;;;;;;;5111019;28;20028;-72
2021/09/21 04:20:17;;;;;;;2.75;0.60;;;;;;;;;;5110885;28;20456;-72
2021/09/21 04:22:44;;;;;;;1.00;0.50;;;;;;;;;;5109865;28;20031;-72
2021/09/21 04:25:11;;;;;;;4.57;0.63;;;;;;;;;;5112074;28;20031;-73
2021/09/21 04:27:37;;;;;;;3.47;0.50;;;;;;;;;;5111818;28;20056;-72
2021/09/21 04:30:04;;;;;;;2.15;0.60;;;;;;;;;;5110548;28;20027;-72
2021/09/21 04:32:30;;;;;;;1.35;0.50;;;;;;;;;;5110720;28;20032;-72
2021/09/21 04:34:56;;;;;;;2.47;0.57;;;;;;;;;;5109267;28;20020;-72
2021/09/21 04:37:22;;;;;;;4.15;0.60;;;;;;;;;;5111591;28;20067;-72
2021/09/21 04:39:49;;;;;;;3.95;0.65;;;;;;;;;;5102408;28;20144;-72
2021/09/21 04:42:17;;;;;;;3.88;0.70;;;;;;;;;;5106795;28;20129;-71
2021/09/21 04:44:43;;;;;;;3.05;0.75;;;;;;;;;;5110068;27;20513;-72
2021/09/21 04:47:08;;;;;;;1.45;0.55;;;;;;;;;;5110442;28;20023;-72
2021/09/21 04:49:35;;;;;;;2.85;0.60;;;;;;;;;;5110147;28;20472;-72
2021/09/21 04:52:01;;;;;;;2.78;0.68;;;;;;;;;;5113307;28;20139;-73
2021/09/21 04:54:27;;;;;;;1.73;0.70;;;;;;;;;;5109961;28;20031;-73
2021/09/21 04:56:53;;;;;;;2.45;0.60;;;;;;;;;;5110075;28;20057;-73
2021/09/21 04:59:19;;;;;;;5.32;0.63;;;;;;;;;;5109360;28;20089;-64
2021/09/21 05:01:45;;;;;;;1.75;0.50;;;;;;;;;;5110436;28;20020;-64
2021/09/21 05:04:11;;;;;;;1.70;0.70;;;;;;;;;;5112402;28;20023;-65
2021/09/21 05:06:37;;;;;;;4.53;0.80;;;;;;;;;;5102448;28;20032;-64
2021/09/21 05:09:09;;;;;;;4.65;0.68;;;;;;;;;;5106537;28;20034;-64
2021/09/21 05:11:35;;;;;;;4.97;1.15;;;;;;;;;;5107431;28;20028;-65
2021/09/21 05:14:01;;;;;;;3.70;0.70;;;;;;;;;;5103123;28;20023;-64
2021/09/21 05:16:27;;;;;;;4.63;0.75;;;;;;;;;;5094284;28;20020;-65
2021/09/21 05:18:53;;;;;;;4.25;0.52;;;;;;;;;;5111778;28;20041;-65
2021/09/21 05:21:19;;;;;;;4.03;0.57;;;;;;;;;;5109009;28;20024;-65
2021/09/21 05:23:45;;;;;;;3.70;0.70;;;;;;;;;;5109350;28;20037;-65
2021/09/21 05:26:10;;;;;;;0.90;0.60;;;;;;;;;;5109684;28;20225;-66
2021/09/21 05:28:36;;;;;;;4.22;0.63;;;;;;;;;;5109393;28;20040;-65
2021/09/21 05:31:02;;;;;;;3.58;0.82;;;;;;;;;;5112346;28;20387;-65
2021/09/21 05:33:28;;;;;;;3.28;0.50;;;;;;;;;;5109850;28;20035;-64
2021/09/21 05:35:55;;;;;;;1.45;0.60;;;;;;;;;;5109229;28;20053;-64
2021/09/21 05:38:21;;;;;;;0.82;0.50;;;;;;;;;;5109228;28;20024;-65
2021/09/21 05:40:47;;;;;;;2.67;0.57;;;;;;;;;;5109516;28;20016;-64
2021/09/21 05:43:13;;;;;;;2.72;0.75;;;;;;;;;;5111307;28;20398;-65
2021/09/21 05:45:38;;;;;;;0.80;0.60;;;;;;;;;;5106260;28;20024;-65
2021/09/21 05:48:05;;;;;;;1.42;0.75;;;;;;;;;;5100163;28;20066;-65
2021/09/21 05:50:31;;;;;;;3.53;0.68;;;;;;;;;;5101908;28;20105;-64
2021/09/21 05:52:57;;;;;;;5.93;0.80;;;;;;;;;;5100387;28;20125;-64
2021/09/21 05:55:23;;;;;;;2.70;0.50;;;;;;;;;;5102639;28;20032;-65
2021/09/21 05:57:49;;;;;;;3.15;0.85;;;;;;;;;;5099631;28;20140;-64
2021/09/21 06:00:16;;;;;;;3.10;0.88;;;;;;;;;;5101906;28;20028;-63
2021/09/21 06:02:42;;;;;;;0.80;0.60;;;;;;;;;;5105429;28;20019;-63
2021/09/21 06:05:08;;;;;;;1.40;0.57;;;;;;;;;;5100340;28;20099;-65
2021/09/21 06:07:37;;;;;;;3.83;0.60;;;;;;;;;;5106887;28;20383;-65
2021/09/21 06:10:03;;;;;;;2.70;0.60;;;;;;;;;;5110671;28;20027;-65
2021/09/21 06:12:29;;;;;;;2.80;0.70;;;;;;;;;;5101758;28;20505;-64
2021/09/21 06:14:55;;;;;;;4.18;0.88;;;;;;;;;;5102208;28;20020;-64
2021/09/21 06:17:21;;;;;;;5.40;0.80;;;;;;;;;;5102430;28;20027;-64
2021/09/21 06:19:47;;;;;;;1.67;0.80;;;;;;;;;;5101305;28;20020;-65
2021/09/21 06:22:13;;;;;;;3.45;0.80;;;;;;;;;;5101724;28;20122;-65
2021/09/21 06:24:39;;;;;;;1.23;0.70;;;;;;;;;;5102504;28;20033;-65
2021/09/21 06:27:05;;;;;;;6.65;1.00;;;;;;;;;;5101960;28;20031;-64
2021/09/21 06:29:31;;;;;;;5.22;0.85;;;;;;;;;;5101198;28;20399;-64
2021/09/21 06:31:57;;;;;;;2.42;0.70;;;;;;;;;;5099953;28;20024;-64
2021/09/21 06:34:24;;;;;;;4.78;0.80;;;;;;;;;;5102581;28;20168;-64
2021/09/21 06:36:53;;;;;;;3.78;0.60;;;;;;;;;;5101774;28;20095;-65
2021/09/21 06:39:19;;;;;;;6.10;0.63;;;;;;;;;;5101346;28;20031;-64
2021/09/21 06:41:45;;;;;;;0.95;0.70;;;;;;;;;;5101396;28;20542;-64
2021/09/21 06:44:11;;;;;;;0.68;0.50;;;;;;;;;;5097553;28;20081;-65
2021/09/21 06:46:37;;;;;;;2.55;0.68;;;;;;;;;;5108337;28;20031;-64
2021/09/21 06:49:03;;;;;;;3.03;0.90;;;;;;;;;;5111321;28;20093;-65
2021/09/21 06:51:31;;;;;;;4.45;0.80;;;;;;;;;;5108621;28;20023;-65
2021/09/21 06:53:57;;;;;;;4.10;0.60;;;;;;;;;;5108392;28;20416;-63
2021/09/21 06:56:27;;;;;;;2.72;0.77;;;;;;;;;;5108483;28;20080;-63
2021/09/21 06:58:53;;;;;;;2.78;0.60;;;;;;;;;;5108573;28;20078;-63
2021/09/21 07:01:19;;;;;;;2.83;0.63;;;;;;;;;;5109495;28;20402;-63
2021/09/21 07:03:45;;;;;;;4.50;0.68;;;;;;;;;;5109738;28;20030;-63
2021/09/21 07:06:12;;;;;;;1.92;0.50;;;;;;;;;;5111029;28;20039;-63
2021/09/21 07:08:38;;;;;;;4.82;0.50;;;;;;;;;;5110206;28;20486;-63
2021/09/21 07:11:04;;;;;;;2.95;0.80;;;;;;;;;;5110144;28;20023;-64
2021/09/21 07:13:30;;;;;;;2.38;0.50;;;;;;;;;;5111537;28;20039;-65
2021/09/21 07:15:56;;;;;;;0.68;0.47;;;;;;;;;;5113948;28;20022;-63
2021/09/21 07:18:22;;;;;;;3.25;0.50;;;;;;;;;;5111073;28;20395;-64
2021/09/21 07:20:48;;;;;;;4.50;0.47;;;;;;;;;;5111418;28;20030;-65
2021/09/21 07:23:14;;;;;;;2.92;0.75;;;;;;;;;;5111845;28;20085;-65
2021/09/21 07:25:40;;;;;;;2.67;0.52;;;;;;;;;;5111723;28;20058;-63
2021/09/21 07:28:06;;;;;;;2.28;0.60;;;;;;;;;;5114519;28;20514;-64
2021/09/21 07:30:32;;;;;;;2.55;0.50;;;;;;;;;;5112321;28;20471;-64
2021/09/21 07:32:59;;;;;;;3.00;0.55;;;;;;;;;;5111760;28;20039;-64
2021/09/21 07:35:25;;;;;;;6.85;0.82;;;;;;;;;;5111753;28;20093;-64
2021/09/21 07:37:51;;;;;;;4.25;0.57;;;;;;;;;;5111109;28;20023;-64
2021/09/21 07:40:19;;;;;;;1.85;0.50;;;;;;;;;;5114170;28;20070;-64
2021/09/21 07:42:45;;;;;;;;;;;;;;;;;;5115715;28;20447;-64
2021/09/21 07:45:12;;;;;;;3.05;0.55;;;;;;;;;;5110996;28;19943;-64
2021/09/21 07:47:38;;;;;;;3.55;0.45;;;;;;;;;;5111119;28;20460;-64
2021/09/21 07:50:05;;;;;;;2.53;0.52;;;;;;;;;;5111380;28;20508;-65
2021/09/21 07:52:31;;;;;;;6.63;0.60;;;;;;;;;;5095626;28;20103;-67
2021/09/21 07:54:58;;;;;;;2.72;0.88;;;;;;;;;;5114414;28;20131;-65
2021/09/21 07:57:25;;;;;;;2.58;0.40;;;;;;;;;;5110866;28;20160;-65
2021/09/21 07:59:51;;;;;;;4.47;0.50;;;;;;;;;;5111067;28;20098;-65
2021/09/21 08:02:17;;;;;;;3.78;0.65;;;;;;;;;;5111170;28;20020;-65
2021/09/21 08:04:43;;;;;;;2.28;0.40;;;;;;;;;;5111109;28;20131;-65
2021/09/21 08:07:09;;;;;;;2.00;0.40;;;;;;;;;;5113573;28;20068;-65
2021/09/21 08:09:37;;;;;;;0.65;0.25;;;;;;;;;;5113824;28;20035;-65
2021/09/21 08:12:03;;;;;;;1.85;0.40;;;;;;;;;;5111141;28;20019;-65
2021/09/21 08:14:29;;;;;;;2.28;0.40;;;;;;;;;;5110884;28;20479;-65
2021/09/21 08:16:55;;;;;;;2.75;0.30;;;;;;;;;;5110487;28;20577;-65
2021/09/21 08:19:21;;;;;;;1.48;0.40;;;;;;;;;;5112439;28;20062;-65
2021/09/21 08:21:47;;;;;;;2.40;0.38;;;;;;;;;;5112771;28;20026;-65
2021/09/21 08:24:13;;;;;;;1.40;0.30;;;;;;;;;;5110778;28;20069;-65
2021/09/21 08:26:40;;;;;;;1.42;0.32;;;;;;;;;;5110813;28;20123;-65
2021/09/21 08:29:06;;;;;;;4.13;0.50;;;;;;;;;;5110009;28;20024;-65
2021/09/21 08:31:32;;;;;;;3.72;0.30;;;;;;;;;;5110947;28;20066;-65
2021/09/21 08:33:59;;;;;;;0.68;0.63;;;;;;;;;;5113968;28;20027;-65
2021/09/21 08:36:25;;;;;;;1.13;0.43;;;;;;;;;;5110285;28;20020;-65
2021/09/21 08:38:55;;;;;;;0.32;0.28;;;;;;;;;;5110400;28;20084;-65
2021/09/21 08:41:21;;;;;;;3.45;0.40;;;;;;;;;;5110330;28;20027;-65
2021/09/21 08:43:47;;;;;;;1.48;0.40;;;;;;;;;;5110417;28;20024;-65
2021/09/21 08:46:13;;;;;;;1.48;0.40;;;;;;;;;;5112821;28;20020;-65
2021/09/21 08:48:39;;;;;;;0.70;0.20;;;;;;;;;;5111065;28;20042;-64
2021/09/21 08:51:05;;;;;;;2.25;0.45;;;;;;;;;;5109949;28;20116;-64
2021/09/21 08:53:31;;;;;;;2.13;0.30;;;;;;;;;;5110405;28;20069;-64
2021/09/21 08:55:58;;;;;;;2.05;0.50;;;;;;;;;;5110127;28;20051;-64
2021/09/21 08:58:25;;;;;;;1.50;0.20;;;;;;;;;;5111296;28;20124;-64
2021/09/21 09:00:51;;;;;;;2.42;0.25;;;;;;;;;;5112236;28;20050;-64
2021/09/21 09:03:17;;;;;;;1.45;0.30;;;;;;;;;;5109877;28;20034;-64
2021/09/21 09:05:51;;;;;;;0.52;0.30;;;;;;;;;;5109845;28;20386;-64
2021/09/21 09:08:37;;;;;;;1.52;0.30;;;;;;;;;;5109288;28;20027;-64
2021/09/21 09:11:15;;;;;;;2.80;0.35;;;;;;;;;;5109314;28;20047;-64
2021/09/21 09:13:41;;;;;;;0.30;0.30;;;;;;;;;;5094675;28;20036;-64
2021/09/21 09:16:12;;;;;;;0.68;0.20;;;;;;;;;;5110791;28;20064;-64
2021/09/21 09:18:39;;;;;;;0.20;0.20;;;;;;;;;;5112632;28;20474;-64
2021/09/21 09:21:05;;;;;;;1.80;0.30;;;;;;;;;;5109517;28;20020;-64
2021/09/21 09:23:31;;;;;;;0.25;0.17;;;;;;;;;;5109748;28;20068;-65
2021/09/21 09:25:58;;;;;;;2.35;0.40;;;;;;;;;;5109507;28;20041;-65
2021/09/21 09:28:25;;;;;;;1.25;0.30;;;;;;;;;;5110247;28;20044;-65
2021/09/21 09:30:52;;;;;;;1.08;0.40;;;;;;;;;;5111365;28;20020;-64
2021/09/21 09:33:19;;;;;;;0.47;0.40;;;;;;;;;;5109267;28;20047;-65
2021/09/21 09:35:46;;;;;;;2.75;0.40;;;;;;;;;;5109254;28;20024;-64
2021/09/21 09:38:14;;;;;;;1.38;0.38;;;;;;;;;;5109436;28;20104;-65
2021/09/21 09:40:45;;;;;;;1.45;0.50;;;;;;;;;;5109097;28;20387;-64
2021/09/21 09:43:11;;;;;;;1.85;0.50;;;;;;;;;;5111228;28;20016;-65
2021/09/21 09:45:39;;;;;;;0.60;0.38;;;;;;;;;;5109267;28;20107;-64
2021/09/21 09:48:06;;;;;;;1.52;0.32;;;;;;;;;;5109083;28;20028;-64
2021/09/21 09:50:33;;;;;;;1.10;0.40;;;;;;;;;;5109047;28;20054;-65
2021/09/21 09:53:07;;;;;;;0.88;0.40;;;;;;;;;;5108513;28;20479;-64
2021/09/21 09:55:33;;;;;;;1.15;0.40;;;;;;;;;;5093400;28;20020;-64
2021/09/21 09:58:00;;;;;;;2.67;0.50;;;;;;;;;;5108299;28;20034;-65
2021/09/21 10:00:26;;;;;;;1.00;0.50;;;;;;;;;;5108549;28;20390;-65
2021/09/21 10:02:53;;;;;;;0.80;0.40;;;;;;;;;;5104546;28;20027;-64
2021/09/21 10:05:19;;;;;;;2.00;0.60;;;;;;;;;;5099835;28;20537;-65
2021/09/21 10:07:46;;;;;;;1.42;0.40;;;;;;;;;;5098942;28;20028;-65
2021/09/21 10:10:12;;;;;;;0.85;0.40;;;;;;;;;;5102157;28;20031;-65
2021/09/21 10:12:38;;;;;;;1.30;0.50;;;;;;;;;;5101254;28;20036;-65
2021/09/21 10:15:11;;;;;;;0.90;0.70;;;;;;;;;;5103071;28;20034;-65
2021/09/21 10:17:48;;;;;;;3.38;0.60;;;;;;;;;;5102688;28;20031;-65
2021/09/21 10:20:14;;;;;;;1.42;0.60;;;;;;;;;;5102508;28;20024;-65
2021/09/21 10:22:40;;;;;;;1.80;0.50;;;;;;;;;;5102483;28;20023;-67
2021/09/21 10:25:07;;;;;;;3.17;0.50;;;;;;;;;;5103258;28;20443;-66
2021/09/21 10:27:35;;;;;;;1.95;0.60;;;;;;;;;;5110491;28;20123;-68
2021/09/21 10:30:03;;;;;;;1.50;0.88;;;;;;;;;;5108580;28;20110;-67
2021/09/21 10:32:29;;;;;;;2.05;0.40;;;;;;;;;;5108330;28;20083;-67
2021/09/21 10:34:58;;;;;;;2.35;0.70;;;;;;;;;;5108271;28;20023;-65
2021/09/21 10:37:30;;;;;;;0.57;0.50;;;;;;;;;;5085225;28;20046;-64
2021/09/21 10:40:04;;;;;;;0.98;0.40;;;;;;;;;;5100752;28;20016;-65
2021/09/21 10:42:30;;;;;;;1.75;0.55;;;;;;;;;;5112285;28;20043;-64
2021/09/21 10:45:02;;;;;;;1.95;0.60;;;;;;;;;;5111287;28;20433;-65
2021/09/21 10:47:29;;;;;;;0.73;0.57;;;;;;;;;;5096534;28;20020;-64
2021/09/21 10:50:08;;;;;;;0.85;0.52;;;;;;;;;;5105256;28;20101;-63
2021/09/21 10:52:33;;;;;;;1.95;0.50;;;;;;;;;;5104663;28;20073;-66
2021/09/21 10:55:00;;;;;;;0.60;0.40;;;;;;;;;;5106350;28;20106;-63
2021/09/21 10:57:31;;;;;;;0.80;0.52;;;;;;;;;;5107375;28;20114;-59
2021/09/21 10:59:58;;;;;;;3.38;0.70;;;;;;;;;;5090486;28;20525;-61
2021/09/21 11:02:24;;;;;;;;;;;;;;;;;;5104888;28;20043;-63
2021/09/21 11:04:50;;;;;;;0.60;0.40;;;;;;;;;;5103042;28;19907;-67
2021/09/21 11:07:17;;;;;;;0.93;0.57;;;;;;;;;;5108292;28;20035;-62
2021/09/21 11:09:49;;;;;;;1.00;0.73;;;;;;;;;;5098890;28;20399;-61
2021/09/21 11:12:16;;;;;;;1.48;0.80;;;;;;;;;;5110323;28;20493;-62
2021/09/21 11:14:43;;;;;;;0.75;0.50;;;;;;;;;;5111861;28;20574;-63
2021/09/21 11:17:09;;;;;;;2.27;0.57;;;;;;;;;;5112184;28;20015;-63
2021/09/21 11:19:36;;;;;;;0.88;0.60;;;;;;;;;;5112192;28;20035;-63
2021/09/21 11:22:04;;;;;;;0.75;0.55;;;;;;;;;;5115227;28;20055;-63
2021/09/21 11:24:30;;;;;;;;;;;;;;;;;;5114334;28;20027;-61
2021/09/21 11:26:57;;;;;;;2.03;0.60;;;;;;;;;;5107918;28;19916;-63
2021/09/21 11:29:23;;;;;;;1.40;0.52;;;;;;;;;;5105138;28;20028;-63
2021/09/21 11:31:50;;;;;;;1.13;0.38;;;;;;;;;;5108986;28;20447;-64
2021/09/21 11:34:16;;;;;;;0.50;0.40;;;;;;;;;;5114358;28;20035;-64
2021/09/21 11:36:49;;;;;;;0.52;0.40;;;;;;;;;;5111332;28;20069;-63
2021/09/21 11:39:16;;;;;;;1.98;0.50;;;;;;;;;;5111163;28;20023;-62
2021/09/21 11:41:42;;;;;;;2.47;0.57;;;;;;;;;;5111697;28;20364;-63
2021/09/21 11:44:08;;;;;;;0.52;0.45;;;;;;;;;;5111555;28;20015;-63
2021/09/21 11:46:34;;;;;;;0.40;0.32;;;;;;;;;;5111717;28;20027;-62
2021/09/21 11:49:00;;;;;;;0.55;0.45;;;;;;;;;;5115117;28;20045;-64
2021/09/21 11:51:27;;;;;;;0.93;0.50;;;;;;;;;;5105770;28;20156;-65
2021/09/21 11:53:56;;;;;;;0.40;0.40;;;;;;;;;;5106198;28;20047;-64
2021/09/21 11:56:23;;;;;;;1.30;0.70;;;;;;;;;;5111354;28;20475;-64
2021/09/21 11:58:57;;;;;;;0.65;0.50;;;;;;;;;;5111112;28;20036;-64
2021/09/21 12:01:23;;;;;;;1.40;0.40;;;;;;;;;;5100220;28;20094;-64
2021/09/21 12:03:52;;;;;;;0.93;0.50;;;;;;;;;;5111174;28;20063;-64
2021/09/21 12:06:18;;;;;;;0.47;0.35;;;;;;;;;;5110558;28;20023;-64
2021/09/21 12:08:44;;;;;;;1.85;0.50;;;;;;;;;;5110276;28;20111;-64
2021/09/21 12:11:11;;;;;;;0.63;0.43;;;;;;;;;;5110374;28;20023;-64
2021/09/21 12:13:37;;;;;;;0.50;0.47;;;;;;;;;;5109164;28;20039;-64
2021/09/21 12:16:04;;;;;;;0.30;0.30;;;;;;;;;;5114367;28;20136;-64
2021/09/21 12:18:30;;;;;;;4.68;0.60;;;;;;;;;;5110795;28;20032;-64
2021/09/21 12:20:58;;;;;;;2.65;0.60;;;;;;;;;;5110175;28;20156;-64
2021/09/21 12:23:36;;;;;;;1.95;0.68;;;;;;;;;;5109568;28;20124;-64
2021/09/21 12:26:03;;;;;;;0.82;0.70;;;;;;;;;;5103108;28;20118;-64
2021/09/21 12:28:29;;;;;;;0.85;0.45;;;;;;;;;;5110427;28;20039;-64
2021/09/21 12:30:56;;;;;;;1.65;0.60;;;;;;;;;;5113120;28;20031;-65
2021/09/21 12:33:22;;;;;;;2.10;0.70;;;;;;;;;;5110107;28;20119;-65
2021/09/21 12:35:49;;;;;;;2.08;0.60;;;;;;;;;;5110001;28;20058;-65
2021/09/21 12:38:23;;;;;;;1.45;0.60;;;;;;;;;;5109810;28;20108;-64
2021/09/21 12:40:53;;;;;;;2.05;0.57;;;;;;;;;;5109595;28;20032;-64
2021/09/21 12:43:21;;;;;;;0.60;0.40;;;;;;;;;;5112240;28;20421;-64
2021/09/21 12:45:47;;;;;;;;;;;;;;;;;;5111700;28;20027;-64
2021/09/21 12:48:13;;;;;;;0.95;0.60;;;;;;;;;;5108293;28;19914;-65
2021/09/21 12:50:40;;;;;;;1.50;0.85;;;;;;;;;;5109960;28;20027;-65
2021/09/21 12:53:07;;;;;;;0.95;0.60;;;;;;;;;;5109452;28;20479;-65
2021/09/21 12:55:34;;;;;;;2.08;0.85;;;;;;;;;;5097475;28;20019;-66
2021/09/21 12:58:01;;;;;;;2.60;0.65;;;;;;;;;;5109039;28;20027;-65
2021/09/21 13:00:37;;;;;;;1.52;0.75;;;;;;;;;;5109424;28;20020;-65
2021/09/21 13:03:03;;;;;;;0.80;0.60;;;;;;;;;;5108120;28;20479;-65
2021/09/21 13:05:29;;;;;;;0.85;0.65;;;;;;;;;;5108804;28;20034;-65
2021/09/21 13:07:55;;;;;;;0.70;0.70;;;;;;;;;;5111877;28;20032;-65
2021/09/21 13:10:21;;;;;;;1.65;0.65;;;;;;;;;;5110806;28;20026;-65
2021/09/21 13:13:07;;;;;;;1.13;0.60;;;;;;;;;;5111286;28;20028;-64
2021/09/21 13:15:34;;;;;;;1.52;0.82;;;;;;;;;;5111864;28;20055;-64
2021/09/21 13:18:01;;;;;;;1.40;0.80;;;;;;;;;;5106444;28;20020;-64
2021/09/21 13:20:28;;;;;;;0.90;0.68;;;;;;;;;;5109127;27;20027;-64
2021/09/21 13:22:56;;;;;;;1.55;0.77;;;;;;;;;;5108567;28;20012;-64
2021/09/21 13:25:22;;;;;;;0.90;0.65;;;;;;;;;;5110578;28;20043;-64
2021/09/21 13:27:48;;;;;;;0.68;0.60;;;;;;;;;;5110975;28;20055;-64
2021/09/21 13:30:15;;;;;;;2.13;0.70;;;;;;;;;;5107932;28;20024;-64
2021/09/21 13:32:41;;;;;;;1.05;0.65;;;;;;;;;;5108873;28;20085;-64
2021/09/21 13:35:08;;;;;;;1.75;0.80;;;;;;;;;;5108147;28;20016;-64
2021/09/21 13:37:34;;;;;;;1.13;0.70;;;;;;;;;;5108798;28;20023;-64
2021/09/21 13:40:00;;;;;;;1.67;0.70;;;;;;;;;;5112451;28;20292;-64
2021/09/21 13:42:26;;;;;;;1.02;0.70;;;;;;;;;;5108573;28;20505;-64
2021/09/21 13:44:52;;;;;;;1.33;0.60;;;;;;;;;;5108718;28;20080;-64
2021/09/21 13:47:18;;;;;;;2.63;0.70;;;;;;;;;;5107755;28;20102;-64
2021/09/21 13:49:44;;;;;;;1.20;0.50;;;;;;;;;;5108329;28;20039;-64
2021/09/21 13:52:10;;;;;;;1.38;0.60;;;;;;;;;;5108320;28;20028;-64
2021/09/21 13:54:37;;;;;;;3.13;0.77;;;;;;;;;;5108096;28;20065;-65
2021/09/21 13:57:04;;;;;;;2.38;0.60;;;;;;;;;;5104845;28;20030;-63
2021/09/21 13:59:30;;;;;;;3.25;0.63;;;;;;;;;;5108348;28;20089;-65
2021/09/21 14:02:03;;;;;;;1.42;0.70;;;;;;;;;;5102377;28;20060;-64
2021/09/21 14:04:29;;;;;;;1.65;0.50;;;;;;;;;;5100499;28;20119;-64
2021/09/21 14:06:55;;;;;;;1.33;0.60;;;;;;;;;;5101161;28;20103;-64
2021/09/21 14:09:22;;;;;;;1.05;0.60;;;;;;;;;;5098549;28;20031;-65
2021/09/21 14:11:48;;;;;;;2.33;0.50;;;;;;;;;;5103699;28;20446;-65
2021/09/21 14:14:14;;;;;;;1.92;0.45;;;;;;;;;;5107984;28;20084;-65
2021/09/21 14:16:40;;;;;;;1.55;0.70;;;;;;;;;;5107863;28;20055;-65
2021/09/21 14:19:06;;;;;;;0.85;0.57;;;;;;;;;;5103996;28;20066;-65
2021/09/21 14:21:32;;;;;;;2.33;0.70;;;;;;;;;;5099655;28;20064;-66
2021/09/21 14:23:59;;;;;;;1.45;0.47;;;;;;;;;;5097177;28;20036;-65
2021/09/21 14:26:25;;;;;;;1.25;0.70;;;;;;;;;;5103933;28;20036;-64
2021/09/21 14:28:51;;;;;;;1.05;0.60;;;;;;;;;;5103326;28;20047;-65
2021/09/21 14:31:17;;;;;;;0.63;0.60;;;;;;;;;;5103024;28;20076;-65
2021/09/21 14:33:43;;;;;;;2.40;0.68;;;;;;;;;;5104922;28;20039;-64
2021/09/21 14:36:11;;;;;;;0.60;0.60;;;;;;;;;;5105246;28;20042;-65
2021/09/21 14:38:37;;;;;;;1.92;0.80;;;;;;;;;;5108307;28;20027;-64
2021/09/21 14:41:03;;;;;;;1.83;0.50;;;;;;;;;;5097317;28;20023;-68
2021/09/21 14:43:36;;;;;;;3.10;0.63;;;;;;;;;;5085234;28;20031;-67
2021/09/21 14:46:02;;;;;;;2.22;0.70;;;;;;;;;;5108215;28;20030;-67
2021/09/21 14:48:28;;;;;;;1.38;0.70;;;;;;;;;;5105706;28;20043;-68
2021/09/21 14:50:55;;;;;;;1.85;0.70;;;;;;;;;;5106436;28;20374;-68
2021/09/21 14:53:21;;;;;;;0.68;0.60;;;;;;;;;;5105418;28;20042;-67
2021/09/21 14:55:47;;;;;;;3.13;0.40;;;;;;;;;;5090649;28;20016;-68
2021/09/21 14:58:13;;;;;;;1.85;0.50;;;;;;;;;;5109650;28;20024;-68
2021/09/21 15:00:41;;;;;;;1.10;0.52;;;;;;;;;;5103204;28;20088;-68